createdAt,value
2022-11-24T18:15:47.120Z,96957.25
2022-11-24T18:20:40.528Z,96964.38
2022-11-24T18:25:37.332Z,96957.56
2022-11-24T18:30:30.764Z,96935.38
2022-11-24T18:35:30.005Z,96931.94
2022-11-24T18:40:43.569Z,96939.69
2022-11-24T18:45:48.729Z,96944.31
2022-11-24T18:50:43.880Z,96952.56
2022-11-24T18:55:38.141Z,96945.50
2022-11-24T19:00:34.647Z,96947.75
2022-11-24T19:05:46.678Z,96931.56
2022-11-24T19:11:01.565Z,96930.81
2022-11-24T19:16:43.328Z,96947.63
2022-11-24T19:22:13.748Z,96937.22
2022-11-24T19:27:10.990Z,96934.78
2022-11-24T19:32:17.610Z,96931.75
2022-11-24T19:37:25.142Z,96929.31
2022-11-24T19:42:32.174Z,96943.34
2022-11-24T19:47:37.573Z,96929.41
2022-11-24T19:52:48.094Z,96944.19
2022-11-24T19:57:49.075Z,96946.34
2022-11-24T20:02:45.941Z,96935.78
2022-11-24T20:08:13.720Z,96943.97
2022-11-24T20:24:51.140Z,96947.06
2022-11-24T20:29:49.162Z,96943.13
2022-11-24T20:35:40.355Z,96939.88
2022-11-24T20:41:18.771Z,96939.53
2022-11-24T21:14:03.109Z,96950.44
2022-11-24T21:29:28.119Z,96936.97
2022-11-24T21:35:05.631Z,96930.34
2022-11-24T21:48:14.609Z,96927.31
2022-11-24T21:53:09.587Z,96925.56
2022-11-24T21:58:06.794Z,96926.50
2022-11-24T22:03:01.651Z,96917.41
2022-11-24T22:07:55.375Z,96928.25
2022-11-24T22:12:49.061Z,96917.25
2022-11-24T22:17:42.629Z,96923.06
2022-11-24T22:22:37.614Z,96917.94
2022-11-24T22:27:30.913Z,96918.09
2022-11-24T22:32:24.202Z,96921.88
2022-11-24T22:37:17.530Z,96941.06
2022-11-24T22:42:12.241Z,96938.63
2022-11-24T22:47:05.657Z,96940.28
2022-11-24T22:51:58.938Z,96944.22
2022-11-24T22:56:52.363Z,96944.13
2022-11-24T23:01:47.057Z,96936.94
2022-11-24T23:06:41.783Z,96926.13
2022-11-24T23:11:39.421Z,96949.00
2022-11-24T23:16:32.939Z,96931.22
2022-11-24T23:21:30.102Z,96936.25
2022-11-24T23:26:26.259Z,96938.31
2022-11-24T23:31:21.941Z,96945.78
2022-11-24T23:36:17.546Z,96927.19
2022-11-24T23:41:16.173Z,96924.66
2022-11-24T23:46:12.226Z,96930.41
2022-11-24T23:51:07.603Z,96914.63
2022-11-24T23:56:01.061Z,96915.66
